aviador You're here:

LFMO Decoded Metar

ORANGE in FRANCE
Report Time2017-09-25 16:30:00
UTC Time2017-09-25 16:51:34
Flight Rules vfr VFR
Wind190° at 04 kt
W.Decomp.*RWY 14: 2.6 kt HW 3.1 kt RCW
W.Rank190° ranks 14
Current wind is below 190° avg. (5.8)
Visibility9999 m
Phenomena:N/A
Clouds:N/A
Expected CloudBase > 3,600 ft AGL from Temp-Dew spread
CeilingNone
Temp23°C (ISA +8)
Dew Point14°C (57% RH)
AAT22.8°C
QNH1017 hPa
Density Alt1,230 ft
Elevation180 ft
Report Wrong Elevation
Raw Report
LFMO 251630Z AUTO 19004KT 160V230 9999 ///TCU 23/14 Q1017 TEMPO
26015KT 4000 SHRA=

Extra information for LFMO:More info

Metar Taf Metar & Taf Last 4 Metars F.Rules Stats Wind Profile Meteogram Temp Stats Airport Information Weather charts Add Link Nearby VenuesMetar ALERT Operation Metar Decoded Social comments